Time;durP1;ratioP1;P1;durP2;ratioP2;P2;SDS_P1;SDS_P2;PMS_P1;PMS_P2;Temp;Humidity;BMP_temperature;BMP_pressure;BME280_temperature;BME280_humidity;BME280_pressure;Samples;Min_cycle;Max_cycle;Signal;HPM_P1;HPM_P2
2023/08/25 00:00:32;;;;;;;0.10;0.10;;;;;;;26.76;58.20;101031.41;4993881;28;20578;-89
2023/08/25 00:02:57;;;;;;;0.10;0.10;;;;;;;26.53;58.27;101016.19;4993428;28;20064;-89
2023/08/25 00:05:23;;;;;;;0.10;0.10;;;;;;;26.58;58.11;101019.19;5010237;28;20049;-90
2023/08/25 00:07:48;;;;;;;0.13;0.13;;;;;;;26.46;58.63;101019.72;5009775;28;20103;-89
2023/08/25 00:10:14;;;;;;;0.20;0.20;;;;;;;26.60;58.24;101026.97;4976574;28;20038;-89
2023/08/25 00:12:39;;;;;;;0.10;0.10;;;;;;;26.61;58.14;101027.81;5009719;28;20030;-90
2023/08/25 00:15:05;;;;;;;0.20;0.20;;;;;;;26.56;58.22;101021.19;4977267;28;20029;-89
2023/08/25 00:17:32;;;;;;;0.10;0.10;;;;;;;26.46;58.60;101014.41;4993322;28;20022;-90
2023/08/25 00:19:58;;;;;;;0.20;0.20;;;;;;;26.50;58.69;101027.16;5011198;28;20026;-90
2023/08/25 00:22:23;;;;;;;0.10;0.10;;;;;;;26.42;58.82;101005.13;4977098;28;20033;-91
2023/08/25 00:24:50;;;;;;;0.10;0.10;;;;;;;26.52;58.33;101024.34;4992820;28;20041;-90
2023/08/25 00:27:15;;;;;;;0.10;0.10;;;;;;;26.51;58.48;101017.38;5009578;28;20025;-89
2023/08/25 00:29:41;;;;;;;0.10;0.10;;;;;;;26.52;58.53;101013.72;5009283;28;20052;-91
2023/08/25 00:32:06;;;;;;;0.10;0.10;;;;;;;26.52;58.26;101019.84;4993266;28;20033;-89
2023/08/25 00:34:32;;;;;;;0.10;0.10;;;;;;;26.44;58.44;101021.69;5010346;28;20084;-89
2023/08/25 00:36:57;;;;;;;0.10;0.10;;;;;;;26.46;58.36;101033.81;4993193;28;20034;-89
2023/08/25 00:39:23;;;;;;;0.10;0.10;;;;;;;26.45;58.25;101036.63;5010452;28;20404;-89
2023/08/25 00:41:48;;;;;;;0.10;0.10;;;;;;;26.40;58.75;101015.09;5009332;28;20084;-91
2023/08/25 00:44:14;;;;;;;0.10;0.10;;;;;;;26.44;58.41;101022.53;5009528;28;20045;-90
2023/08/25 00:46:39;;;;;;;0.20;0.20;;;;;;;26.47;58.35;101032.81;4993152;28;20037;-90
2023/08/25 00:49:05;;;;;;;0.10;0.10;;;;;;;26.41;58.34;101022.88;4997003;28;20030;-91
2023/08/25 00:51:30;;;;;;;0.10;0.10;;;;;;;26.48;57.96;101029.16;4996716;28;20041;-91
2023/08/25 00:53:55;;;;;;;0.10;0.10;;;;;;;26.46;58.07;101019.72;5013038;28;20030;-92
2023/08/25 00:56:21;;;;;;;0.20;0.20;;;;;;;26.45;58.03;101021.56;4996662;28;20531;-89
2023/08/25 00:58:46;;;;;;;0.10;0.10;;;;;;;26.39;58.16;101019.56;4980477;28;20022;-91
2023/08/25 01:01:12;;;;;;;0.10;0.10;;;;;;;26.41;58.53;101022.88;5012753;28;20026;-89
2023/08/25 01:03:38;;;;;;;0.10;0.10;;;;;;;26.42;58.26;101024.53;4980086;28;20037;-90
2023/08/25 01:06:04;;;;;;;0.10;0.10;;;;;;;26.38;58.47;101023.22;5013118;28;20026;-91
2023/08/25 01:08:30;;;;;;;0.20;0.20;;;;;;;26.44;58.44;101025.19;4996475;28;20410;-92
2023/08/25 01:11:17;;;;;;;0.10;0.10;;;;;;;26.53;58.05;101021.50;4980065;28;20026;-91
2023/08/25 01:13:49;;;;;;;0.20;0.20;;;;;;;26.48;58.22;101018.56;5013023;28;20025;-92
2023/08/25 01:16:16;;;;;;;;;;;;;;;26.46;58.23;101017.06;5013138;28;20030;-90
2023/08/25 01:18:41;;;;;;;0.20;0.20;;;;;;;26.13;58.85;101003.81;5013042;28;19920;-90
2023/08/25 01:21:07;;;;;;;0.10;0.10;;;;;;;26.17;59.10;101020.22;4980245;28;20025;-90
2023/08/25 01:23:38;;;;;;;0.20;0.20;;;;;;;26.22;58.78;101007.28;5012332;28;20034;-90
2023/08/25 01:26:03;;;;;;;0.10;0.10;;;;;;;26.12;58.66;100980.13;5012738;28;20056;-92
2023/08/25 01:28:29;;;;;;;0.10;0.10;;;;;;;26.38;58.66;101023.22;4996377;28;20022;-92
2023/08/25 01:30:57;;;;;;;0.10;0.10;;;;;;;26.31;58.83;101017.72;5012766;28;20542;-91
2023/08/25 01:33:23;;;;;;;0.10;0.10;;;;;;;26.46;58.07;101022.38;4996600;28;20460;-90
2023/08/25 01:35:51;;;;;;;0.10;0.10;;;;;;;26.36;58.51;101016.41;5011995;28;20388;-91
2023/08/25 01:38:26;;;;;;;0.20;0.20;;;;;;;26.35;58.29;101027.97;4995768;28;20117;-89
2023/08/25 01:40:59;;;;;;;0.10;0.10;;;;;;;26.13;58.77;101002.97;4996309;28;20034;-89
2023/08/25 01:43:24;;;;;;;0.10;0.10;;;;;;;26.07;59.17;101009.78;4996518;28;20101;-90
2023/08/25 01:45:50;;;;;;;0.10;0.10;;;;;;;26.03;59.46;101019.88;4979660;28;20116;-90
2023/08/25 01:48:16;;;;;;;0.20;0.20;;;;;;;25.94;59.72;101025.34;4979770;28;20030;-90
2023/08/25 01:50:41;;;;;;;0.10;0.10;;;;;;;25.96;59.28;101028.69;4979583;28;20042;-90
2023/08/25 01:53:08;;;;;;;0.10;0.10;;;;;;;25.89;59.83;101025.03;4995300;28;20030;-89
2023/08/25 01:55:34;;;;;;;0.10;0.10;;;;;;;25.90;59.15;101019.56;4995094;28;20187;-91
2023/08/25 01:57:59;;;;;;;0.10;0.10;;;;;;;25.73;59.90;101007.28;4979278;28;20431;-91
2023/08/25 02:00:25;;;;;;;0.10;0.10;;;;;;;25.82;59.79;101022.19;4995692;28;20036;-89
2023/08/25 02:02:50;;;;;;;0.10;0.10;;;;;;;25.86;59.52;101023.53;4995737;28;20431;-89
2023/08/25 02:05:16;;;;;;;0.20;0.20;;;;;;;25.77;59.63;101011.28;5011808;28;20182;-90
2023/08/25 02:07:41;;;;;;;0.20;0.20;;;;;;;25.88;59.55;101029.50;4995150;28;20022;-92
2023/08/25 02:10:07;;;;;;;0.20;0.20;;;;;;;25.81;59.75;101030.31;4978912;28;20041;-91
2023/08/25 02:12:33;;;;;;;0.10;0.10;;;;;;;25.75;60.01;101031.78;5011526;28;20388;-90
2023/08/25 02:14:59;;;;;;;0.10;0.10;;;;;;;25.75;59.86;101015.88;4979334;28;20030;-89
2023/08/25 02:17:24;;;;;;;0.10;0.10;;;;;;;25.68;60.23;101017.53;5011626;28;20600;-91
2023/08/25 02:19:50;;;;;;;0.20;0.20;;;;;;;25.66;60.08;101030.94;5011505;28;20030;-91
2023/08/25 02:22:15;;;;;;;0.10;0.10;;;;;;;25.54;60.18;101015.50;4994675;28;20022;-89
2023/08/25 02:24:41;;;;;;;0.10;0.10;;;;;;;25.59;60.61;101034.41;4995297;28;20034;-89
2023/08/25 02:27:06;;;;;;;0.10;0.10;;;;;;;25.54;60.01;101018.16;5011881;28;20042;-92
2023/08/25 02:29:31;;;;;;;0.10;0.10;;;;;;;25.46;60.59;101025.09;4978827;28;20030;-92
2023/08/25 02:31:57;;;;;;;0.20;0.20;;;;;;;25.35;61.13;101029.84;4978776;28;20096;-90
2023/08/25 02:34:22;;;;;;;0.15;0.15;;;;;;;25.36;61.10;101032.34;5011434;28;20033;-90
2023/08/25 02:36:48;;;;;;;0.20;0.20;;;;;;;25.41;60.83;101032.69;4978434;28;20029;-90
2023/08/25 02:39:13;;;;;;;0.13;0.13;;;;;;;25.29;60.67;101009.34;5011263;28;20029;-89
2023/08/25 02:41:39;;;;;;;0.10;0.10;;;;;;;25.34;61.17;101033.50;5012120;28;20029;-90
2023/08/25 02:44:04;;;;;;;0.10;0.10;;;;;;;25.37;61.13;101049.91;4978699;28;20443;-91
2023/08/25 02:46:29;;;;;;;0.20;0.20;;;;;;;25.35;61.45;101057.16;4978330;28;20412;-90
2023/08/25 02:48:55;;;;;;;0.17;0.17;;;;;;;25.30;61.04;101051.53;5011085;28;20034;-89
2023/08/25 02:51:20;;;;;;;0.10;0.10;;;;;;;25.31;61.22;101055.00;4994415;28;20034;-90
2023/08/25 02:53:46;;;;;;;0.10;0.10;;;;;;;25.16;61.30;101030.94;5010936;28;20088;-92
2023/08/25 02:56:11;;;;;;;0.20;0.20;;;;;;;25.19;61.26;101051.00;5010599;28;20054;-91
2023/08/25 02:58:37;;;;;;;0.10;0.10;;;;;;;25.04;61.68;101035.72;4994757;28;20040;-90
2023/08/25 03:01:10;;;;;;;0.10;0.10;;;;;;;25.12;61.90;101058.75;5011252;28;20036;-90
2023/08/25 03:03:36;;;;;;;0.17;0.17;;;;;;;24.99;62.14;101066.28;4994475;28;20397;-91
2023/08/25 03:06:01;;;;;;;0.10;0.10;;;;;;;25.04;62.02;101066.66;4978218;28;20033;-93
2023/08/25 03:08:27;;;;;;;0.10;0.10;;;;;;;25.06;62.19;101072.59;5011062;28;20033;-90
2023/08/25 03:10:53;;;;;;;0.10;0.10;;;;;;;25.11;61.25;101075.63;4977604;28;20041;-92
2023/08/25 03:13:19;;;;;;;0.15;0.15;;;;;;;25.14;61.95;101075.28;4978314;28;20446;-91
2023/08/25 03:15:48;;;;;;;0.10;0.10;;;;;;;25.11;61.98;101078.25;4994303;28;20025;-91
2023/08/25 03:18:13;;;;;;;0.10;0.10;;;;;;;25.21;61.68;101086.91;4995155;28;20060;-90
2023/08/25 03:20:39;;;;;;;0.10;0.10;;;;;;;25.18;61.70;101092.53;4994264;28;20022;-92
2023/08/25 03:23:04;;;;;;;0.10;0.10;;;;;;;25.17;61.95;101090.84;4994379;28;20030;-91
2023/08/25 03:25:30;;;;;;;0.10;0.10;;;;;;;25.12;62.09;101085.22;4978267;28;20029;-92
2023/08/25 03:27:55;;;;;;;0.13;0.13;;;;;;;25.17;61.54;101093.50;5010514;28;20022;-92
2023/08/25 03:30:21;;;;;;;0.20;0.20;;;;;;;25.17;61.85;101090.84;5010684;28;20037;-90
2023/08/25 03:32:46;;;;;;;0.10;0.10;;;;;;;25.22;61.60;101101.81;4994788;28;20062;-91
2023/08/25 03:35:13;;;;;;;0.20;0.20;;;;;;;25.21;61.65;101109.91;5009631;28;20107;-89
2023/08/25 03:37:38;;;;;;;0.30;0.30;;;;;;;25.09;61.55;101098.78;4994004;28;20036;-88
2023/08/25 03:40:04;;;;;;;0.10;0.10;;;;;;;25.00;61.88;101099.69;5010340;28;20034;-89
2023/08/25 03:42:30;;;;;;;0.20;0.20;;;;;;;25.03;62.32;101109.97;4977188;28;20395;-90
2023/08/25 03:44:55;;;;;;;0.20;0.20;;;;;;;24.96;62.48;101115.03;4993215;28;20030;-89
2023/08/25 03:47:21;;;;;;;0.10;0.10;;;;;;;24.88;62.94;101126.44;5009629;28;20037;-90
2023/08/25 03:49:46;;;;;;;0.10;0.10;;;;;;;24.78;63.24;101128.34;5009602;28;20033;-90
2023/08/25 03:52:12;;;;;;;0.10;0.10;;;;;;;24.75;63.57;101131.28;5010095;28;20029;-91
2023/08/25 03:54:37;;;;;;;0.10;0.10;;;;;;;24.72;63.51;101125.47;5009745;28;20408;-92
2023/08/25 03:57:06;;;;;;;0.10;0.10;;;;;;;24.64;63.06;101110.38;5009718;28;20030;-90
2023/08/25 03:59:31;;;;;;;0.10;0.10;;;;;;;24.73;63.35;101132.44;4978297;28;20052;-90
2023/08/25 04:01:57;;;;;;;0.17;0.17;;;;;;;24.74;63.32;101137.56;4993176;28;20495;-90
2023/08/25 04:04:22;;;;;;;0.10;0.10;;;;;;;24.84;63.18;101133.00;4990155;28;20415;-90
2023/08/25 04:06:48;;;;;;;0.20;0.20;;;;;;;25.06;62.73;101134.31;4986252;28;20046;-92
2023/08/25 04:09:13;;;;;;;0.20;0.20;;;;;;;25.21;62.63;101150.47;4993170;28;20034;-90
2023/08/25 04:11:39;;;;;;;0.10;0.10;;;;;;;25.24;62.41;101149.31;5004304;28;20022;-92
2023/08/25 04:14:04;;;;;;;0.10;0.10;;;;;;;25.31;61.15;101160.94;4996393;28;20145;-88
2023/08/25 04:16:30;;;;;;;0.10;0.10;;;;;;;25.36;61.10;101163.94;4992148;28;20037;-91
2023/08/25 04:18:55;;;;;;;0.10;0.10;;;;;;;25.23;61.32;101169.66;4987610;28;20034;-90
2023/08/25 04:21:21;;;;;;;0.10;0.10;;;;;;;25.05;61.71;101176.81;5007965;28;20412;-90
2023/08/25 04:23:46;;;;;;;0.20;0.20;;;;;;;25.07;62.11;101177.50;5003034;28;20420;-90
2023/08/25 04:26:12;;;;;;;0.10;0.10;;;;;;;25.14;61.66;101178.53;4977591;28;20515;-90
2023/08/25 04:28:37;;;;;;;0.10;0.10;;;;;;;25.06;61.70;101170.53;5005057;28;20424;-90
2023/08/25 04:31:02;;;;;;;0.20;0.20;;;;;;;24.91;62.34;101166.78;5005120;28;20041;-91
2023/08/25 04:33:28;;;;;;;0.20;0.20;;;;;;;25.01;62.21;101170.16;4997245;28;20061;-90
2023/08/25 04:35:53;;;;;;;0.10;0.10;;;;;;;25.04;61.75;101164.59;5014360;28;20033;-93
2023/08/25 04:38:19;;;;;;;0.10;0.10;;;;;;;24.96;62.26;101172.44;4995971;28;20038;-89
2023/08/25 04:40:44;;;;;;;0.10;0.10;;;;;;;25.00;61.95;101157.91;5003474;28;20025;-93
2023/08/25 04:43:10;;;;;;;0.17;0.17;;;;;;;24.98;62.36;101181.06;4994884;28;20030;-89
2023/08/25 04:45:35;;;;;;;0.15;0.15;;;;;;;24.83;62.13;101168.38;5009529;28;20030;-91
2023/08/25 04:48:00;;;;;;;0.20;0.20;;;;;;;24.73;62.64;101162.34;4982585;28;20046;-87
2023/08/25 04:50:26;;;;;;;0.10;0.10;;;;;;;24.82;62.81;101164.09;5004154;28;20084;-90
2023/08/25 04:52:54;;;;;;;0.20;0.20;;;;;;;24.99;62.74;101172.16;4963154;28;20488;-93
2023/08/25 04:55:20;;;;;;;0.10;0.10;;;;;;;25.01;62.44;101167.53;4988298;28;20059;-93
2023/08/25 04:57:45;;;;;;;0.10;0.10;;;;;;;25.04;62.08;101165.41;4983387;28;20392;-89
2023/08/25 05:00:11;;;;;;;0.10;0.10;;;;;;;25.11;62.33;101171.75;5013023;28;20440;-88
2023/08/25 05:02:37;;;;;;;0.20;0.20;;;;;;;25.00;62.23;101171.16;4993681;28;20019;-92
2023/08/25 05:05:05;;;;;;;0.20;0.20;;;;;;;24.91;62.17;101158.84;4997291;28;20029;-91
2023/08/25 05:07:31;;;;;;;0.10;0.10;;;;;;;25.04;62.21;101177.81;4994671;28;20042;-93
2023/08/25 05:09:56;;;;;;;0.10;0.10;;;;;;;24.96;62.48;101173.25;4992783;28;20510;-88
2023/08/25 05:12:22;;;;;;;0.20;0.20;;;;;;;25.09;62.21;101184.31;5012985;28;20034;-92
2023/08/25 05:14:47;;;;;;;0.10;0.10;;;;;;;25.09;62.68;101178.19;4993022;28;20491;-93
2023/08/25 05:17:12;;;;;;;0.10;0.10;;;;;;;25.03;62.66;101174.34;4976594;28;20034;-86
2023/08/25 05:19:38;;;;;;;0.10;0.10;;;;;;;25.13;61.84;101158.34;5001140;28;20029;-92
2023/08/25 05:22:03;;;;;;;0.17;0.17;;;;;;;25.27;61.55;101155.13;5001941;28;20475;-88
2023/08/25 05:24:29;;;;;;;0.10;0.10;;;;;;;25.38;61.28;101168.09;4997496;28;20104;-89
2023/08/25 05:26:54;;;;;;;0.10;0.10;;;;;;;25.36;61.45;101172.69;4993068;28;20607;-90
2023/08/25 05:29:20;;;;;;;0.10;0.10;;;;;;;25.82;60.84;101186.50;5008264;28;20443;-92
2023/08/25 05:31:46;;;;;;;0.20;0.20;;;;;;;25.97;60.30;101181.44;4995785;28;20059;-90
2023/08/25 05:34:11;;;;;;;0.10;0.10;;;;;;;26.00;59.11;101184.59;5000408;28;20109;-88
2023/08/25 05:36:37;;;;;;;0.10;0.10;;;;;;;25.89;59.37;101174.28;4982891;28;20038;-93
2023/08/25 05:39:03;;;;;;;0.20;0.20;;;;;;;25.88;59.97;101180.59;4983638;28;20113;-89
2023/08/25 05:41:28;;;;;;;0.20;0.20;;;;;;;25.98;59.89;101180.44;4991028;28;20126;-91
2023/08/25 05:43:54;;;;;;;0.15;0.15;;;;;;;26.10;59.14;101183.63;5001016;28;20038;-92
2023/08/25 05:46:19;;;;;;;0.20;0.20;;;;;;;26.28;59.33;101197.56;5004578;28;20092;-90
2023/08/25 05:48:45;;;;;;;0.20;0.20;;;;;;;26.44;58.92;101187.00;4976739;28;20089;-91
2023/08/25 05:51:10;;;;;;;0.10;0.10;;;;;;;26.49;58.55;101178.56;4996835;28;20025;-92
2023/08/25 05:53:35;;;;;;;0.17;0.17;;;;;;;26.56;58.30;101184.88;4992570;28;20027;-94
2023/08/25 05:56:01;;;;;;;0.20;0.20;;;;;;;26.55;58.09;101178.75;4974020;28;20053;-93
2023/08/25 05:58:26;;;;;;;0.20;0.20;;;;;;;26.63;58.60;101185.00;4995864;28;20088;-93
2023/08/25 06:00:52;;;;;;;0.20;0.20;;;;;;;26.89;58.95;101183.03;4995841;28;20471;-90
2023/08/25 06:03:18;;;;;;;0.10;0.10;;;;;;;26.81;56.73;101177.72;4979551;28;20033;-93
2023/08/25 06:05:46;;;;;;;0.20;0.20;;;;;;;26.96;58.40;101197.28;4996403;28;20042;-89
2023/08/25 06:08:12;;;;;;;0.15;0.15;;;;;;;27.17;57.73;101198.63;4996829;28;20062;-88
2023/08/25 06:10:37;;;;;;;0.10;0.10;;;;;;;27.16;57.17;101195.13;5005763;28;20026;-91
2023/08/25 06:13:03;;;;;;;0.10;0.10;;;;;;;27.25;57.97;101195.94;5009146;28;20084;-91
2023/08/25 06:15:29;;;;;;;0.20;0.20;;;;;;;27.26;57.92;101186.97;4991358;28;20558;-93
2023/08/25 06:17:54;;;;;;;0.10;0.10;;;;;;;27.33;57.05;101190.59;4986711;28;20107;-91
2023/08/25 06:20:21;;;;;;;0.20;0.20;;;;;;;27.52;55.69;101192.84;4998429;28;20053;-92
2023/08/25 06:22:47;;;;;;;0.10;0.10;;;;;;;27.57;55.70;101185.19;4992561;28;20034;-92
2023/08/25 06:25:13;;;;;;;0.20;0.20;;;;;;;27.52;55.45;101192.03;5005319;28;20040;-94
2023/08/25 06:27:38;;;;;;;0.20;0.20;;;;;;;27.37;56.07;101197.22;4989525;28;20054;-92
2023/08/25 06:30:04;;;;;;;0.20;0.20;;;;;;;27.36;56.85;101193.75;5005901;28;20033;-94
2023/08/25 06:32:30;;;;;;;0.20;0.20;;;;;;;27.55;55.94;101197.84;4983677;28;20042;-94
2023/08/25 06:34:55;;;;;;;0.13;0.13;;;;;;;27.54;56.81;101195.34;5002985;28;20034;-91
2023/08/25 06:37:20;;;;;;;0.10;0.10;;;;;;;27.64;55.96;101194.16;5008956;28;20036;-93
2023/08/25 06:39:48;;;;;;;0.20;0.20;;;;;;;27.58;55.76;101197.47;4988088;28;20507;-94
2023/08/25 06:42:14;;;;;;;0.20;0.20;;;;;;;27.63;55.79;101204.94;4999819;28;20030;-93
2023/08/25 06:44:40;;;;;;;0.20;0.20;;;;;;;27.72;55.80;101204.75;4983695;28;20034;-92
2023/08/25 06:47:06;;;;;;;0.17;0.17;;;;;;;27.81;55.26;101205.56;5006996;28;20501;-93
2023/08/25 06:49:31;;;;;;;0.20;0.20;;;;;;;27.80;55.05;101203.06;4990247;28;20136;-91
2023/08/25 06:51:57;;;;;;;0.20;0.20;;;;;;;27.87;55.32;101215.50;4997460;28;20049;-89
2023/08/25 06:54:26;;;;;;;0.10;0.10;;;;;;;27.77;54.64;101179.50;4969891;28;20061;-94
2023/08/25 06:56:52;;;;;;;0.20;0.20;;;;;;;28.02;55.51;101212.91;4996193;28;20072;-91
2023/08/25 06:59:18;;;;;;;0.10;0.10;;;;;;;28.14;55.50;101203.56;4975944;28;20039;-88
2023/08/25 07:01:43;;;;;;;0.20;0.20;;;;;;;28.31;53.92;101212.28;4994234;28;20042;-87
2023/08/25 07:04:09;;;;;;;0.20;0.20;;;;;;;28.25;53.40;101192.50;4999666;28;20034;-91
2023/08/25 07:06:36;;;;;;;0.20;0.20;;;;;;;28.34;54.66;101211.13;4987017;28;20026;-90
2023/08/25 07:09:02;;;;;;;0.20;0.20;;;;;;;28.42;53.40;101213.72;5001967;28;20502;-91
2023/08/25 07:11:28;;;;;;;0.20;0.20;;;;;;;28.44;53.42;101193.06;4999481;28;20033;-88
2023/08/25 07:13:58;;;;;;;0.20;0.20;;;;;;;28.46;54.10;101191.88;5014055;28;20038;-92
2023/08/25 07:16:25;;;;;;;0.20;0.20;;;;;;;28.59;53.64;101212.56;5049588;22;20059;-89
2023/08/25 07:18:50;;;;;;;0.20;0.20;;;;;;;28.68;53.44;101213.34;4933615;28;20031;-87
2023/08/25 07:21:16;;;;;;;0.20;0.20;;;;;;;28.63;52.77;101211.22;4975886;28;20114;-90
2023/08/25 07:23:42;;;;;;;0.20;0.20;;;;;;;28.76;52.45;101207.94;4952994;28;20030;-90
2023/08/25 07:26:08;;;;;;;0.20;0.20;;;;;;;28.83;52.41;101193.75;4976538;28;20027;-87
2023/08/25 07:28:33;;;;;;;0.20;0.20;;;;;;;28.99;52.60;101202.59;4949862;28;20035;-91
2023/08/25 07:30:59;;;;;;;0.20;0.20;;;;;;;29.08;52.52;101215.66;4953390;28;20089;-91
2023/08/25 07:33:25;;;;;;;0.20;0.20;;;;;;;29.08;52.40;101210.34;4970038;28;20077;-92
2023/08/25 07:35:51;;;;;;;0.20;0.20;;;;;;;29.23;51.69;101215.69;4959500;28;20026;-90
2023/08/25 07:38:16;;;;;;;0.20;0.20;;;;;;;29.21;51.36;101200.91;4964710;28;20031;-93
2023/08/25 07:40:42;;;;;;;0.20;0.20;;;;;;;29.38;50.87;101208.50;4970361;28;20485;-92
2023/08/25 07:43:07;;;;;;;0.10;0.10;;;;;;;29.48;50.37;101207.41;4937664;28;20031;-89
2023/08/25 07:45:33;;;;;;;0.20;0.20;;;;;;;29.56;51.66;101207.34;4966980;28;20049;-90
2023/08/25 07:48:00;;;;;;;0.20;0.20;;;;;;;29.78;50.90;101208.22;4955624;28;20027;-90
2023/08/25 07:50:26;;;;;;;0.20;0.20;;;;;;;29.83;49.85;101195.19;4944166;28;20042;-91
2023/08/25 07:52:52;;;;;;;0.20;0.20;;;;;;;29.98;48.89;101202.09;4944020;28;20030;-89
2023/08/25 07:55:17;;;;;;;0.20;0.20;;;;;;;29.97;49.57;101184.47;4960898;28;20073;-88
2023/08/25 07:57:43;;;;;;;0.20;0.20;;;;;;;30.11;48.41;101189.97;4944369;28;20057;-88
2023/08/25 08:00:12;;;;;;;0.20;0.20;;;;;;;30.13;48.56;101190.63;4955372;28;20023;-90
2023/08/25 08:02:38;;;;;;;0.20;0.20;;;;;;;30.34;48.02;101187.94;4958329;28;20037;-93
2023/08/25 08:05:05;;;;;;;0.20;0.20;;;;;;;30.38;47.69;101180.38;4967652;28;20500;-91
2023/08/25 08:07:34;;;;;;;0.20;0.20;;;;;;;30.49;46.97;101185.22;4970281;28;20556;-88
2023/08/25 08:09:59;;;;;;;0.20;0.20;;;;;;;30.59;46.88;101182.22;4968369;28;20050;-91
2023/08/25 08:12:25;;;;;;;0.20;0.20;;;;;;;30.57;46.64;101185.06;4968001;28;20125;-90
2023/08/25 08:14:50;;;;;;;0.20;0.20;;;;;;;30.51;46.99;101173.31;4957389;28;20042;-94
2023/08/25 08:17:16;;;;;;;0.20;0.20;;;;;;;30.54;47.03;101172.94;4954635;28;20062;-89
2023/08/25 08:19:41;;;;;;;0.20;0.20;;;;;;;30.55;45.95;101158.56;4951087;28;20031;-89
2023/08/25 08:22:06;;;;;;;0.20;0.20;;;;;;;30.81;46.29;101184.69;4971690;28;20035;-92
2023/08/25 08:24:33;;;;;;;0.20;0.20;;;;;;;30.94;45.86;101181.28;4954002;28;20400;-88
2023/08/25 08:26:59;;;;;;;0.20;0.20;;;;;;;31.03;46.70;101166.75;4979145;28;20035;-90
2023/08/25 08:29:25;;;;;;;0.20;0.20;;;;;;;31.36;45.65;101182.16;4967082;28;20547;-92
2023/08/25 08:31:50;;;;;;;0.20;0.20;;;;;;;31.44;45.45;101176.66;4970824;28;20027;-90
2023/08/25 08:34:16;;;;;;;0.20;0.20;;;;;;;31.57;45.29;101183.94;4973830;28;20042;-88
2023/08/25 08:36:42;;;;;;;0.20;0.20;;;;;;;31.62;44.23;101184.16;4954129;28;20082;-89
2023/08/25 08:39:08;;;;;;;0.20;0.20;;;;;;;31.73;43.75;101174.72;4979574;28;20035;-92
2023/08/25 08:41:33;;;;;;;0.20;0.20;;;;;;;31.79;43.91;101165.94;4971570;28;20106;-92
2023/08/25 08:43:59;;;;;;;0.20;0.20;;;;;;;31.92;44.40;101164.09;4957114;28;20413;-90
2023/08/25 08:46:25;;;;;;;0.20;0.20;;;;;;;32.02;44.11;101166.41;4970588;28;20477;-93
2023/08/25 08:48:51;;;;;;;0.20;0.20;;;;;;;32.11;42.92;101165.19;4952003;28;20055;-89
2023/08/25 08:51:17;;;;;;;0.20;0.20;;;;;;;32.19;42.42;101165.00;4981782;28;20027;-90
2023/08/25 08:53:43;;;;;;;0.20;0.20;;;;;;;32.16;43.03;101168.09;4944933;28;20062;-92
2023/08/25 08:56:09;;;;;;;0.20;0.20;;;;;;;32.11;43.99;101175.88;4974823;28;20042;-92
2023/08/25 08:58:35;;;;;;;0.20;0.20;;;;;;;32.06;41.52;101164.16;4952590;28;20126;-93
2023/08/25 09:01:01;;;;;;;0.20;0.20;;;;;;;31.86;43.06;101162.25;4966670;28;20051;-93
2023/08/25 09:03:30;;;;;;;0.20;0.20;;;;;;;31.82;42.84;101149.47;4955505;28;20524;-89
2023/08/25 09:05:57;;;;;;;0.20;0.20;;;;;;;31.98;43.48;101167.84;4954391;28;20037;-89
2023/08/25 09:08:23;;;;;;;0.20;0.20;;;;;;;32.04;43.50;101161.66;4968235;28;20026;-87
2023/08/25 09:10:48;;;;;;;0.20;0.20;;;;;;;32.25;42.62;101156.16;4955079;28;20037;-90
2023/08/25 09:13:14;;;;;;;0.20;0.20;;;;;;;32.61;41.64;101149.56;4955102;28;20030;-92
2023/08/25 09:15:40;;;;;;;0.20;0.20;;;;;;;32.59;41.08;101143.63;4986641;28;20050;-93
2023/08/25 09:18:06;;;;;;;0.20;0.20;;;;;;;32.67;40.77;101146.09;4957295;28;20493;-88
2023/08/25 09:20:34;;;;;;;0.20;0.20;;;;;;;32.82;40.85;101135.94;4985483;28;20506;-91
2023/08/25 09:23:00;;;;;;;0.20;0.20;;;;;;;33.21;41.27;101150.31;4959266;28;20460;-92
2023/08/25 09:25:25;;;;;;;0.20;0.20;;;;;;;33.29;40.19;101138.53;4957600;28;20089;-92
2023/08/25 09:27:56;;;;;;;0.20;0.20;;;;;;;33.59;38.96;101147.72;4959856;28;20026;-92
2023/08/25 09:30:37;;;;;;;0.20;0.20;;;;;;;33.68;38.80;101124.16;4974022;28;20113;-88
2023/08/25 09:33:04;;;;;;;0.20;0.20;;;;;;;33.84;38.58;101150.50;4958761;28;20109;-89
2023/08/25 09:35:29;;;;;;;0.20;0.20;;;;;;;33.95;38.62;101143.63;4974315;28;20057;-90
2023/08/25 09:37:55;;;;;;;0.20;0.20;;;;;;;34.18;38.30;101135.00;4966155;28;20031;-89
2023/08/25 09:40:21;;;;;;;0.25;0.25;;;;;;;34.36;37.80;101129.69;4973368;28;20035;-90
2023/08/25 09:42:46;;;;;;;0.20;0.20;;;;;;;34.36;38.29;101124.31;4972200;28;20532;-90
2023/08/25 09:45:12;;;;;;;0.20;0.20;;;;;;;34.37;38.25;101125.97;4975855;28;20061;-87
2023/08/25 09:47:38;;;;;;;0.30;0.30;;;;;;;34.31;37.90;101121.44;4973855;28;20105;-91
2023/08/25 09:50:04;;;;;;;0.20;0.20;;;;;;;34.28;37.93;101108.47;4941349;28;20063;-86
2023/08/25 09:52:30;;;;;;;0.30;0.30;;;;;;;34.37;38.79;101117.91;4988148;28;20029;-92
2023/08/25 09:54:55;;;;;;;0.30;0.30;;;;;;;34.49;38.31;101116.16;4978260;28;20027;-90
2023/08/25 09:57:23;;;;;;;0.30;0.30;;;;;;;34.47;37.66;101114.75;4988158;28;20035;-90
2023/08/25 09:59:48;;;;;;;0.20;0.20;;;;;;;34.54;38.13;101112.00;4963645;28;20065;-88
2023/08/25 10:02:14;;;;;;;0.20;0.20;;;;;;;34.64;37.27;101112.31;4979221;28;20082;-93
2023/08/25 10:04:39;;;;;;;0.20;0.20;;;;;;;34.64;37.21;101112.31;4988202;28;20034;-92
2023/08/25 10:07:05;;;;;;;0.25;0.25;;;;;;;34.70;37.27;101106.88;4973311;28;20035;-91
2023/08/25 10:09:31;;;;;;;0.30;0.30;;;;;;;34.73;37.58;101097.56;4974672;28;20046;-89
2023/08/25 10:11:56;;;;;;;0.30;0.30;;;;;;;34.82;36.99;101103.47;4974913;28;20034;-91
2023/08/25 10:14:24;;;;;;;0.30;0.30;;;;;;;34.98;36.74;101113.63;4974612;28;20058;-92
2023/08/25 10:16:52;;;;;;;0.30;0.30;;;;;;;35.07;36.62;101107.72;4973523;28;20046;-87
2023/08/25 10:19:23;;;;;;;0.20;0.20;;;;;;;34.80;36.63;101074.09;4973352;28;20038;-89
2023/08/25 10:21:49;;;;;;;0.30;0.30;;;;;;;34.97;37.02;101104.75;4991126;28;20033;-94
2023/08/25 10:24:15;;;;;;;0.20;0.20;;;;;;;34.90;37.15;101095.09;4952548;28;20045;-88
2023/08/25 10:26:41;;;;;;;0.30;0.30;;;;;;;35.05;36.73;101103.63;4956359;28;20437;-88
2023/08/25 10:29:08;;;;;;;0.30;0.30;;;;;;;35.22;36.57;101095.78;4953678;28;20058;-93
2023/08/25 10:31:33;;;;;;;0.20;0.20;;;;;;;35.34;36.47;101104.72;4963732;28;20058;-92
2023/08/25 10:33:59;;;;;;;0.30;0.30;;;;;;;35.40;37.29;101103.84;4952196;28;20130;-89
2023/08/25 10:36:25;;;;;;;0.30;0.30;;;;;;;35.50;36.21;101104.13;4949085;28;20031;-86
2023/08/25 10:39:00;;;;;;;0.30;0.30;;;;;;;35.50;35.77;101112.19;4971159;28;20071;-86
2023/08/25 10:41:27;;;;;;;0.22;0.22;;;;;;;35.48;36.30;101084.69;4953649;28;20027;-84
2023/08/25 10:43:54;;;;;;;0.25;0.25;;;;;;;35.49;34.64;101080.94;4963208;28;21053;-90
2023/08/25 10:46:20;;;;;;;0.20;0.20;;;;;;;35.47;34.34;101092.97;4960081;28;20453;-90
2023/08/25 10:48:47;;;;;;;0.30;0.30;;;;;;;35.46;34.16;101080.59;4970802;28;20035;-87
2023/08/25 10:51:19;;;;;;;0.30;0.30;;;;;;;35.59;33.29;101066.94;4969301;28;20493;-87
2023/08/25 10:53:54;;;;;;;0.20;0.20;;;;;;;35.93;32.55;101076.19;4952017;29;20034;-92
2023/08/25 10:56:22;;;;;;;0.30;0.30;;;;;;;35.92;32.66;101071.84;4969195;28;20093;-85
2023/08/25 10:59:09;;;;;;;0.30;0.30;;;;;;;35.54;32.83;101073.00;4953094;28;20086;-87
2023/08/25 11:01:37;;;;;;;0.30;0.30;;;;;;;35.66;33.67;101072.22;4971246;28;20054;-89
2023/08/25 11:04:13;;;;;;;0.28;0.28;;;;;;;35.53;33.83;101063.31;4963937;28;20306;-88
2023/08/25 11:06:42;;;;;;;0.30;0.30;;;;;;;35.59;33.70;101072.31;4951776;28;20031;-90
2023/08/25 11:09:11;;;;;;;0.30;0.30;;;;;;;35.75;33.13;101060.91;4945419;28;20087;-87
2023/08/25 11:11:37;;;;;;;0.30;0.30;;;;;;;36.09;33.31;101061.22;4965491;28;20496;-90
2023/08/25 11:14:03;;;;;;;0.30;0.30;;;;;;;36.23;33.84;101057.25;4967880;28;20481;-90
2023/08/25 11:16:28;;;;;;;0.22;0.22;;;;;;;36.16;33.75;101046.56;4955656;28;20056;-93
2023/08/25 11:18:54;;;;;;;0.30;0.30;;;;;;;36.07;34.46;101058.75;4941149;29;20564;-86